sensor_id;sensor_type;location;lat;lon;timestamp;pressure;altitude;pressure_sealevel;temperature;humidity
80747;BME280;70144;50.218;14.322;2023-09-18T00:01:46;98927.38;;;15.91;66.50
80747;BME280;70144;50.218;14.322;2023-09-18T00:04:11;98919.28;;;15.86;65.68
80747;BME280;70144;50.218;14.322;2023-09-18T00:06:37;98916.03;;;15.83;66.51
80747;BME280;70144;50.218;14.322;2023-09-18T00:09:02;98911.97;;;15.81;66.53
80747;BME280;70144;50.218;14.322;2023-09-18T00:11:28;98913.44;;;15.78;66.86
80747;BME280;70144;50.218;14.322;2023-09-18T00:13:53;98905.97;;;15.70;66.40
80747;BME280;70144;50.218;14.322;2023-09-18T00:16:18;98914.91;;;15.67;67.05
80747;BME280;70144;50.218;14.322;2023-09-18T00:18:44;98912.63;;;15.69;66.92
80747;BME280;70144;50.218;14.322;2023-09-18T00:21:10;98912.75;;;15.64;66.56
80747;BME280;70144;50.218;14.322;2023-09-18T00:23:36;98899.28;;;15.54;66.92
80747;BME280;70144;50.218;14.322;2023-09-18T00:26:02;98916.50;;;15.60;66.25
80747;BME280;70144;50.218;14.322;2023-09-18T00:28:27;98910.50;;;15.58;66.62
80747;BME280;70144;50.218;14.322;2023-09-18T00:30:52;98918.59;;;15.54;67.22
80747;BME280;70144;50.218;14.322;2023-09-18T00:33:18;98915.03;;;15.54;67.29
80747;BME280;70144;50.218;14.322;2023-09-18T00:35:50;98911.63;;;15.57;66.79
80747;BME280;70144;50.218;14.322;2023-09-18T00:38:16;98914.22;;;15.53;67.85
80747;BME280;70144;50.218;14.322;2023-09-18T00:40:42;98909.50;;;15.54;66.81
80747;BME280;70144;50.218;14.322;2023-09-18T00:43:08;98912.56;;;15.44;68.16
80747;BME280;70144;50.218;14.322;2023-09-18T00:45:35;98904.94;;;15.41;67.75
80747;BME280;70144;50.218;14.322;2023-09-18T00:48:03;98905.25;;;15.39;67.78
80747;BME280;70144;50.218;14.322;2023-09-18T00:50:28;98889.00;;;15.29;67.75
80747;BME280;70144;50.218;14.322;2023-09-18T00:52:54;98890.44;;;15.26;68.05
80747;BME280;70144;50.218;14.322;2023-09-18T00:55:19;98881.69;;;15.24;68.01
80747;BME280;70144;50.218;14.322;2023-09-18T00:57:45;98880.88;;;15.24;68.70
80747;BME280;70144;50.218;14.322;2023-09-18T01:00:12;98882.50;;;15.25;67.79
80747;BME280;70144;50.218;14.322;2023-09-18T01:02:42;98886.09;;;15.25;68.52
80747;BME280;70144;50.218;14.322;2023-09-18T01:05:07;98874.53;;;15.23;68.75
80747;BME280;70144;50.218;14.322;2023-09-18T01:07:33;98876.50;;;15.23;69.48
80747;BME280;70144;50.218;14.322;2023-09-18T01:09:58;98875.38;;;15.24;69.48
80747;BME280;70144;50.218;14.322;2023-09-18T01:12:33;98868.38;;;15.26;68.99
80747;BME280;70144;50.218;14.322;2023-09-18T01:17:41;98856.91;;;15.33;69.50
80747;BME280;70144;50.218;14.322;2023-09-18T01:20:11;98858.19;;;15.35;69.23
80747;BME280;70144;50.218;14.322;2023-09-18T01:22:36;98857.84;;;15.37;68.96
80747;BME280;70144;50.218;14.322;2023-09-18T01:25:02;98858.19;;;15.35;69.48
80747;BME280;70144;50.218;14.322;2023-09-18T01:27:28;98848.94;;;15.31;70.38
80747;BME280;70144;50.218;14.322;2023-09-18T01:29:53;98839.69;;;15.27;70.97
80747;BME280;70144;50.218;14.322;2023-09-18T01:32:19;98843.59;;;15.35;69.70
80747;BME280;70144;50.218;14.322;2023-09-18T01:34:47;98840.38;;;15.33;69.57
80747;BME280;70144;50.218;14.322;2023-09-18T01:37:14;98830.78;;;15.30;71.59
80747;BME280;70144;50.218;14.322;2023-09-18T01:39:40;98835.00;;;15.36;71.22
80747;BME280;70144;50.218;14.322;2023-09-18T01:42:07;98815.53;;;15.33;72.92
80747;BME280;70144;50.218;14.322;2023-09-18T01:44:35;98829.00;;;15.43;71.27
80747;BME280;70144;50.218;14.322;2023-09-18T01:47:06;98823.50;;;15.43;71.39
80747;BME280;70144;50.218;14.322;2023-09-18T01:49:35;98823.66;;;15.47;73.76
80747;BME280;70144;50.218;14.322;2023-09-18T01:52:02;98824.81;;;15.54;71.33
80747;BME280;70144;50.218;14.322;2023-09-18T01:54:28;98808.28;;;15.54;72.68
80747;BME280;70144;50.218;14.322;2023-09-18T01:56:54;98809.88;;;15.64;72.90
80747;BME280;70144;50.218;14.322;2023-09-18T01:59:20;98816.38;;;15.76;73.49
80747;BME280;70144;50.218;14.322;2023-09-18T02:01:46;98818.47;;;15.79;71.75
80747;BME280;70144;50.218;14.322;2023-09-18T02:04:11;98820.25;;;15.75;73.43
80747;BME280;70144;50.218;14.322;2023-09-18T02:06:37;98819.63;;;15.78;72.85
80747;BME280;70144;50.218;14.322;2023-09-18T02:09:02;98823.38;;;15.82;72.95
80747;BME280;70144;50.218;14.322;2023-09-18T02:11:33;98815.72;;;15.88;73.15
80747;BME280;70144;50.218;14.322;2023-09-18T02:13:58;98799.34;;;15.74;74.73
80747;BME280;70144;50.218;14.322;2023-09-18T02:16:23;98808.09;;;15.85;72.60
80747;BME280;70144;50.218;14.322;2023-09-18T02:18:50;98791.03;;;15.83;72.84
80747;BME280;70144;50.218;14.322;2023-09-18T02:21:18;98793.47;;;15.93;73.34
80747;BME280;70144;50.218;14.322;2023-09-18T02:23:44;98794.28;;;15.94;73.18
80747;BME280;70144;50.218;14.322;2023-09-18T02:26:09;98779.84;;;15.97;74.94
80747;BME280;70144;50.218;14.322;2023-09-18T02:28:35;98778.72;;;15.98;74.08
80747;BME280;70144;50.218;14.322;2023-09-18T02:31:00;98770.75;;;15.88;73.78
80747;BME280;70144;50.218;14.322;2023-09-18T02:33:25;98774.97;;;15.94;72.52
80747;BME280;70144;50.218;14.322;2023-09-18T02:35:51;98780.31;;;15.99;74.13
80747;BME280;70144;50.218;14.322;2023-09-18T02:38:16;98773.19;;;15.98;73.50
80747;BME280;70144;50.218;14.322;2023-09-18T02:40:41;98773.19;;;15.98;73.92
80747;BME280;70144;50.218;14.322;2023-09-18T02:43:07;98766.19;;;15.92;73.47
80747;BME280;70144;50.218;14.322;2023-09-18T02:45:32;98774.31;;;15.97;72.16
80747;BME280;70144;50.218;14.322;2023-09-18T02:47:58;98764.25;;;15.92;72.87
80747;BME280;70144;50.218;14.322;2023-09-18T02:50:23;98756.63;;;15.89;72.08
80747;BME280;70144;50.218;14.322;2023-09-18T02:52:48;98762.78;;;15.95;73.84
80747;BME280;70144;50.218;14.322;2023-09-18T02:55:14;98771.41;;;15.93;73.13
80747;BME280;70144;50.218;14.322;2023-09-18T02:57:39;98759.88;;;15.91;72.92
80747;BME280;70144;50.218;14.322;2023-09-18T03:00:06;98750.78;;;15.91;72.25
80747;BME280;70144;50.218;14.322;2023-09-18T03:02:32;98750.31;;;15.89;73.33
80747;BME280;70144;50.218;14.322;2023-09-18T03:04:57;98758.25;;;15.90;73.76
80747;BME280;70144;50.218;14.322;2023-09-18T03:07:22;98756.47;;;15.86;73.16
80747;BME280;70144;50.218;14.322;2023-09-18T03:09:48;98746.94;;;15.74;73.94
80747;BME280;70144;50.218;14.322;2023-09-18T03:12:13;98749.03;;;15.77;73.22
80747;BME280;70144;50.218;14.322;2023-09-18T03:14:38;98750.66;;;15.78;72.75
80747;BME280;70144;50.218;14.322;2023-09-18T03:17:04;98743.50;;;15.77;72.43
80747;BME280;70144;50.218;14.322;2023-09-18T03:19:30;98747.25;;;15.73;74.12
80747;BME280;70144;50.218;14.322;2023-09-18T03:21:55;98733.16;;;15.66;72.88
80747;BME280;70144;50.218;14.322;2023-09-18T03:24:21;98739.13;;;15.68;73.37
80747;BME280;70144;50.218;14.322;2023-09-18T03:26:46;98749.53;;;15.71;73.79
80747;BME280;70144;50.218;14.322;2023-09-18T03:29:11;98743.88;;;15.67;74.92
80747;BME280;70144;50.218;14.322;2023-09-18T03:31:37;98738.50;;;15.62;73.81
80747;BME280;70144;50.218;14.322;2023-09-18T03:34:02;98738.97;;;15.64;73.23
80747;BME280;70144;50.218;14.322;2023-09-18T03:36:27;98728.44;;;15.58;73.01
80747;BME280;70144;50.218;14.322;2023-09-18T03:38:53;98712.22;;;15.56;72.74
80747;BME280;70144;50.218;14.322;2023-09-18T03:41:18;98722.28;;;15.61;73.10
80747;BME280;70144;50.218;14.322;2023-09-18T03:43:43;98721.47;;;15.60;73.16
80747;BME280;70144;50.218;14.322;2023-09-18T03:46:09;98716.94;;;15.56;72.21
80747;BME280;70144;50.218;14.322;2023-09-18T03:48:34;98719.69;;;15.56;73.85
80747;BME280;70144;50.218;14.322;2023-09-18T03:51:06;98708.50;;;15.52;72.79
80747;BME280;70144;50.218;14.322;2023-09-18T03:53:32;98712.88;;;15.53;73.23
80747;BME280;70144;50.218;14.322;2023-09-18T03:55:58;98701.50;;;15.46;73.13
80747;BME280;70144;50.218;14.322;2023-09-18T03:58:24;98703.63;;;15.41;72.91
80747;BME280;70144;50.218;14.322;2023-09-18T04:00:49;98703.63;;;15.41;71.99
80747;BME280;70144;50.218;14.322;2023-09-18T04:03:14;98714.97;;;15.39;72.74
80747;BME280;70144;50.218;14.322;2023-09-18T04:05:40;98706.38;;;15.32;72.96
80747;BME280;70144;50.218;14.322;2023-09-18T04:08:05;98695.88;;;15.25;72.71
80747;BME280;70144;50.218;14.322;2023-09-18T04:10:30;98694.53;;;15.23;72.72
80747;BME280;70144;50.218;14.322;2023-09-18T04:12:56;98699.09;;;15.19;72.71
80747;BME280;70144;50.218;14.322;2023-09-18T04:15:22;98701.38;;;15.17;72.89
80747;BME280;70144;50.218;14.322;2023-09-18T04:17:48;98703.16;;;15.13;72.93
80747;BME280;70144;50.218;14.322;2023-09-18T04:20:14;98691.31;;;15.04;72.56
80747;BME280;70144;50.218;14.322;2023-09-18T04:25:43;98691.97;;;15.01;73.13
80747;BME280;70144;50.218;14.322;2023-09-18T04:28:09;98697.00;;;14.99;72.87
80747;BME280;70144;50.218;14.322;2023-09-18T04:30:34;98691.47;;;14.99;72.64
80747;BME280;70144;50.218;14.322;2023-09-18T04:33:00;98690.16;;;14.96;72.75
80747;BME280;70144;50.218;14.322;2023-09-18T04:35:25;98694.88;;;14.96;72.79
80747;BME280;70144;50.218;14.322;2023-09-18T04:37:55;98696.31;;;14.93;72.66
80747;BME280;70144;50.218;14.322;2023-09-18T04:40:21;98692.28;;;14.91;72.70
80747;BME280;70144;50.218;14.322;2023-09-18T04:42:49;98695.50;;;14.93;72.04
80747;BME280;70144;50.218;14.322;2023-09-18T04:45:14;98697.78;;;14.91;72.08
80747;BME280;70144;50.218;14.322;2023-09-18T04:47:41;98686.94;;;14.85;72.64
80747;BME280;70144;50.218;14.322;2023-09-18T04:50:07;98691.63;;;14.85;72.29
80747;BME280;70144;50.218;14.322;2023-09-18T04:52:34;98694.06;;;14.86;72.02
80747;BME280;70144;50.218;14.322;2023-09-18T04:54:59;98698.59;;;14.82;72.73
80747;BME280;70144;50.218;14.322;2023-09-18T04:57:24;98691.28;;;14.78;73.56
80747;BME280;70144;50.218;14.322;2023-09-18T04:59:50;98695.50;;;14.75;73.20
80747;BME280;70144;50.218;14.322;2023-09-18T05:02:15;98695.50;;;14.75;73.01
80747;BME280;70144;50.218;14.322;2023-09-18T05:04:42;98694.19;;;14.73;72.89
80747;BME280;70144;50.218;14.322;2023-09-18T05:07:07;98696.31;;;14.76;73.41
80747;BME280;70144;50.218;14.322;2023-09-18T05:09:32;98693.41;;;14.81;73.60
80747;BME280;70144;50.218;14.322;2023-09-18T05:11:59;98682.06;;;14.82;73.39
80747;BME280;70144;50.218;14.322;2023-09-18T05:14:24;98675.75;;;14.91;73.01
80747;BME280;70144;50.218;14.322;2023-09-18T05:16:50;98675.25;;;14.97;73.43
80747;BME280;70144;50.218;14.322;2023-09-18T05:19:15;98663.94;;;14.99;74.03
80747;BME280;70144;50.218;14.322;2023-09-18T05:21:40;98656.63;;;14.94;77.75
80747;BME280;70144;50.218;14.322;2023-09-18T05:24:07;98660.34;;;15.15;77.56
80747;BME280;70144;50.218;14.322;2023-09-18T05:26:32;98658.25;;;15.21;77.34
80747;BME280;70144;50.218;14.322;2023-09-18T05:28:58;98652.88;;;15.24;78.15
80747;BME280;70144;50.218;14.322;2023-09-18T05:31:23;98655.59;;;15.42;77.98
80747;BME280;70144;50.218;14.322;2023-09-18T05:33:49;98643.13;;;15.44;78.88
80747;BME280;70144;50.218;14.322;2023-09-18T05:36:15;98654.78;;;15.58;78.80
80747;BME280;70144;50.218;14.322;2023-09-18T05:38:41;98651.38;;;15.61;80.35
80747;BME280;70144;50.218;14.322;2023-09-18T05:41:06;98644.88;;;15.66;78.24
80747;BME280;70144;50.218;14.322;2023-09-18T05:43:32;98650.53;;;15.69;78.26
80747;BME280;70144;50.218;14.322;2023-09-18T05:45:57;98649.41;;;15.70;76.91
80747;BME280;70144;50.218;14.322;2023-09-18T05:48:22;98642.56;;;15.76;76.41
80747;BME280;70144;50.218;14.322;2023-09-18T05:50:48;98638.50;;;15.82;78.03
80747;BME280;70144;50.218;14.322;2023-09-18T05:53:13;98643.38;;;15.77;78.28
80747;BME280;70144;50.218;14.322;2023-09-18T05:55:39;98633.16;;;15.77;76.74
80747;BME280;70144;50.218;14.322;2023-09-18T05:58:04;98622.44;;;15.76;76.92
80747;BME280;70144;50.218;14.322;2023-09-18T06:00:32;98617.47;;;15.99;74.40
80747;BME280;70144;50.218;14.322;2023-09-18T06:02:57;98617.28;;;16.04;74.88
80747;BME280;70144;50.218;14.322;2023-09-18T06:05:24;98618.09;;;16.04;76.28
80747;BME280;70144;50.218;14.322;2023-09-18T06:07:50;98621.31;;;16.06;74.82
80747;BME280;70144;50.218;14.322;2023-09-18T06:10:16;98619.88;;;16.09;76.56
80747;BME280;70144;50.218;14.322;2023-09-18T06:12:43;98612.53;;;16.13;78.11
80747;BME280;70144;50.218;14.322;2023-09-18T06:15:09;98622.56;;;16.17;77.52
80747;BME280;70144;50.218;14.322;2023-09-18T06:17:43;98615.59;;;16.20;75.74
80747;BME280;70144;50.218;14.322;2023-09-18T06:20:10;98617.94;;;16.30;77.04
80747;BME280;70144;50.218;14.322;2023-09-18T06:22:37;98611.28;;;16.31;78.09
80747;BME280;70144;50.218;14.322;2023-09-18T06:25:04;98615.16;;;16.39;76.17
80747;BME280;70144;50.218;14.322;2023-09-18T06:27:29;98619.59;;;16.52;75.31
80747;BME280;70144;50.218;14.322;2023-09-18T06:29:56;98615.38;;;16.54;73.51
80747;BME280;70144;50.218;14.322;2023-09-18T06:32:22;98619.44;;;16.57;78.84
80747;BME280;70144;50.218;14.322;2023-09-18T06:34:47;98607.03;;;16.63;77.43
80747;BME280;70144;50.218;14.322;2023-09-18T06:37:12;98604.06;;;16.68;77.23
80747;BME280;70144;50.218;14.322;2023-09-18T06:39:38;98595.91;;;16.71;78.25
80747;BME280;70144;50.218;14.322;2023-09-18T06:42:04;98614.88;;;16.82;77.60
80747;BME280;70144;50.218;14.322;2023-09-18T06:44:29;98604.47;;;16.78;78.91
80747;BME280;70144;50.218;14.322;2023-09-18T06:46:55;98610.75;;;16.88;78.67
80747;BME280;70144;50.218;14.322;2023-09-18T06:49:20;98608.09;;;16.91;78.26
80747;BME280;70144;50.218;14.322;2023-09-18T06:51:45;98605.53;;;17.07;74.72
80747;BME280;70144;50.218;14.322;2023-09-18T06:54:11;98595.88;;;17.13;76.38
80747;BME280;70144;50.218;14.322;2023-09-18T06:56:36;98588.75;;;17.12;77.24
80747;BME280;70144;50.218;14.322;2023-09-18T06:59:01;98596.59;;;17.22;77.17
80747;BME280;70144;50.218;14.322;2023-09-18T07:01:27;98598.00;;;17.28;75.49
80747;BME280;70144;50.218;14.322;2023-09-18T07:03:53;98604.28;;;17.49;77.77
80747;BME280;70144;50.218;14.322;2023-09-18T07:06:19;98599.22;;;17.51;76.30
80747;BME280;70144;50.218;14.322;2023-09-18T07:08:45;98610.00;;;17.65;75.96
80747;BME280;70144;50.218;14.322;2023-09-18T07:11:11;98604.03;;;17.75;73.87
80747;BME280;70144;50.218;14.322;2023-09-18T07:13:37;98611.53;;;17.99;74.51
80747;BME280;70144;50.218;14.322;2023-09-18T07:16:03;98597.44;;;18.16;74.29
80747;BME280;70144;50.218;14.322;2023-09-18T07:18:29;98615.00;;;18.44;75.00
80747;BME280;70144;50.218;14.322;2023-09-18T07:20:54;98604.56;;;18.78;71.61
80747;BME280;70144;50.218;14.322;2023-09-18T07:23:20;98611.28;;;19.32;71.70
80747;BME280;70144;50.218;14.322;2023-09-18T07:25:47;98606.81;;;20.02;69.33
80747;BME280;70144;50.218;14.322;2023-09-18T07:28:13;98606.47;;;20.54;67.50
80747;BME280;70144;50.218;14.322;2023-09-18T07:30:45;98607.38;;;21.32;64.11
80747;BME280;70144;50.218;14.322;2023-09-18T07:33:11;98606.09;;;21.68;63.41
80747;BME280;70144;50.218;14.322;2023-09-18T07:35:37;98604.72;;;22.26;61.35
80747;BME280;70144;50.218;14.322;2023-09-18T07:38:03;98602.94;;;22.93;58.90
80747;BME280;70144;50.218;14.322;2023-09-18T07:40:28;98607.59;;;23.46;57.74
80747;BME280;70144;50.218;14.322;2023-09-18T07:42:54;98607.75;;;23.60;55.50
80747;BME280;70144;50.218;14.322;2023-09-18T07:45:19;98585.94;;;24.16;56.33
80747;BME280;70144;50.218;14.322;2023-09-18T07:47:44;98581.78;;;24.00;54.40
80747;BME280;70144;50.218;14.322;2023-09-18T07:50:10;98584.44;;;24.88;54.56
80747;BME280;70144;50.218;14.322;2023-09-18T07:52:35;98576.25;;;25.41;51.47
80747;BME280;70144;50.218;14.322;2023-09-18T07:55:01;98575.47;;;25.47;51.64
80747;BME280;70144;50.218;14.322;2023-09-18T07:57:26;98565.91;;;25.59;51.60
80747;BME280;70144;50.218;14.322;2023-09-18T07:59:55;98567.97;;;26.11;50.49
80747;BME280;70144;50.218;14.322;2023-09-18T08:02:20;98556.34;;;26.27;50.99
80747;BME280;70144;50.218;14.322;2023-09-18T08:04:47;98561.94;;;26.45;49.15
80747;BME280;70144;50.218;14.322;2023-09-18T08:07:12;98557.56;;;26.26;49.91
80747;BME280;70144;50.218;14.322;2023-09-18T08:09:38;98562.72;;;26.66;48.69
80747;BME280;70144;50.218;14.322;2023-09-18T08:12:07;98568.63;;;27.07;48.30
80747;BME280;70144;50.218;14.322;2023-09-18T08:14:33;98563.44;;;27.75;45.70
80747;BME280;70144;50.218;14.322;2023-09-18T08:17:02;98571.41;;;27.07;47.23
80747;BME280;70144;50.218;14.322;2023-09-18T08:19:29;98572.81;;;27.51;46.23
80747;BME280;70144;50.218;14.322;2023-09-18T08:21:55;98578.75;;;28.26;46.13
80747;BME280;70144;50.218;14.322;2023-09-18T08:24:24;98567.31;;;27.26;46.26
80747;BME280;70144;50.218;14.322;2023-09-18T08:26:50;98564.28;;;26.71;47.03
80747;BME280;70144;50.218;14.322;2023-09-18T08:29:15;98567.97;;;26.18;50.51
80747;BME280;70144;50.218;14.322;2023-09-18T08:31:41;98563.53;;;26.03;51.03
80747;BME280;70144;50.218;14.322;2023-09-18T08:34:06;98561.91;;;25.60;50.29
80747;BME280;70144;50.218;14.322;2023-09-18T08:36:32;98553.66;;;24.84;52.24
80747;BME280;70144;50.218;14.322;2023-09-18T08:38:57;98567.09;;;24.64;54.24
80747;BME280;70144;50.218;14.322;2023-09-18T08:41:23;98571.97;;;24.81;52.16
80747;BME280;70144;50.218;14.322;2023-09-18T08:43:52;98577.97;;;24.80;53.30
80747;BME280;70144;50.218;14.322;2023-09-18T08:46:21;98587.59;;;24.82;51.28
80747;BME280;70144;50.218;14.322;2023-09-18T08:48:46;98581.97;;;24.82;52.84
80747;BME280;70144;50.218;14.322;2023-09-18T08:51:13;98580.78;;;24.80;51.36
80747;BME280;70144;50.218;14.322;2023-09-18T08:53:39;98574.34;;;24.72;54.53
80747;BME280;70144;50.218;14.322;2023-09-18T08:56:06;98559.63;;;24.24;54.52
80747;BME280;70144;50.218;14.322;2023-09-18T08:58:36;98537.38;;;24.39;54.71
80747;BME280;70144;50.218;14.322;2023-09-18T09:01:03;98536.16;;;24.36;54.03
80747;BME280;70144;50.218;14.322;2023-09-18T09:03:31;98537.75;;;24.37;54.16
80747;BME280;70144;50.218;14.322;2023-09-18T09:05:56;98536.94;;;24.36;55.75
80747;BME280;70144;50.218;14.322;2023-09-18T09:08:22;98536.47;;;24.27;55.72
80747;BME280;70144;50.218;14.322;2023-09-18T09:10:48;98543.38;;;24.44;53.80
80747;BME280;70144;50.218;14.322;2023-09-18T09:13:14;98538.94;;;25.08;53.38
80747;BME280;70144;50.218;14.322;2023-09-18T09:15:45;98534.22;;;25.34;52.07
80747;BME280;70144;50.218;14.322;2023-09-18T09:18:11;98523.06;;;25.62;50.31
80747;BME280;70144;50.218;14.322;2023-09-18T09:20:37;98521.03;;;25.48;52.29
80747;BME280;70144;50.218;14.322;2023-09-18T09:23:08;98527.50;;;25.81;49.79
80747;BME280;70144;50.218;14.322;2023-09-18T09:25:34;98532.31;;;26.22;50.43
80747;BME280;70144;50.218;14.322;2023-09-18T09:28:04;98514.69;;;26.36;50.67
80747;BME280;70144;50.218;14.322;2023-09-18T09:30:31;98507.81;;;26.55;48.88
80747;BME280;70144;50.218;14.322;2023-09-18T09:32:58;98500.69;;;27.30;49.61
80747;BME280;70144;50.218;14.322;2023-09-18T09:35:28;98490.56;;;28.39;45.68
80747;BME280;70144;50.218;14.322;2023-09-18T09:38:00;98504.41;;;29.28;43.85
80747;BME280;70144;50.218;14.322;2023-09-18T09:40:26;98509.09;;;30.15;41.29
80747;BME280;70144;50.218;14.322;2023-09-18T09:42:53;98492.41;;;30.87;40.95
80747;BME280;70144;50.218;14.322;2023-09-18T09:45:23;98497.28;;;31.42;39.68
80747;BME280;70144;50.218;14.322;2023-09-18T09:47:56;98488.50;;;31.56;37.86
80747;BME280;70144;50.218;14.322;2023-09-18T09:50:22;98485.38;;;31.15;39.60
80747;BME280;70144;50.218;14.322;2023-09-18T09:52:51;98479.16;;;32.08;35.98
80747;BME280;70144;50.218;14.322;2023-09-18T09:55:33;98484.34;;;32.70;35.09
80747;BME280;70144;50.218;14.322;2023-09-18T09:58:04;98490.66;;;33.32;33.76
80747;BME280;70144;50.218;14.322;2023-09-18T10:00:36;98473.28;;;33.55;32.08
80747;BME280;70144;50.218;14.322;2023-09-18T10:03:12;98462.38;;;33.41;33.04
80747;BME280;70144;50.218;14.322;2023-09-18T10:05:41;98472.97;;;32.87;32.75
80747;BME280;70144;50.218;14.322;2023-09-18T10:08:11;98476.56;;;32.29;38.12
80747;BME280;70144;50.218;14.322;2023-09-18T10:10:44;98470.56;;;32.56;35.42
80747;BME280;70144;50.218;14.322;2023-09-18T10:13:20;98472.84;;;33.03;35.94
80747;BME280;70144;50.218;14.322;2023-09-18T10:15:50;98461.56;;;33.91;33.43
80747;BME280;70144;50.218;14.322;2023-09-18T10:18:20;98459.59;;;34.13;32.03
80747;BME280;70144;50.218;14.322;2023-09-18T10:20:51;98458.19;;;34.43;33.36
80747;BME280;70144;50.218;14.322;2023-09-18T10:23:27;98458.84;;;35.43;32.29
80747;BME280;70144;50.218;14.322;2023-09-18T10:26:01;98453.97;;;35.84;29.09
80747;BME280;70144;50.218;14.322;2023-09-18T10:28:30;98456.00;;;36.60;27.47
80747;BME280;70144;50.218;14.322;2023-09-18T10:30:57;98450.94;;;37.75;27.24
80747;BME280;70144;50.218;14.322;2023-09-18T10:33:23;98448.94;;;37.99;25.94
80747;BME280;70144;50.218;14.322;2023-09-18T10:35:49;98435.97;;;38.75;23.31
80747;BME280;70144;50.218;14.322;2023-09-18T10:38:16;98445.38;;;39.05;25.41
80747;BME280;70144;50.218;14.322;2023-09-18T10:40:43;98435.50;;;39.35;22.88
80747;BME280;70144;50.218;14.322;2023-09-18T10:43:10;98436.72;;;39.28;23.50
80747;BME280;70144;50.218;14.322;2023-09-18T10:45:37;98438.16;;;39.24;23.08
80747;BME280;70144;50.218;14.322;2023-09-18T10:48:05;98430.81;;;39.67;23.68
80747;BME280;70144;50.218;14.322;2023-09-18T10:50:34;98432.84;;;39.81;23.69
80747;BME280;70144;50.218;14.322;2023-09-18T10:53:00;98429.19;;;40.36;22.79
80747;BME280;70144;50.218;14.322;2023-09-18T10:55:26;98431.28;;;40.81;21.95
80747;BME280;70144;50.218;14.322;2023-09-18T10:57:59;98434.47;;;41.40;21.12
80747;BME280;70144;50.218;14.322;2023-09-18T11:00:26;98418.47;;;41.02;20.61
80747;BME280;70144;50.218;14.322;2023-09-18T11:02:53;98417.19;;;41.66;20.63
80747;BME280;70144;50.218;14.322;2023-09-18T11:05:48;98418.13;;;41.89;19.40
80747;BME280;70144;50.218;14.322;2023-09-18T11:08:31;98407.25;;;42.09;20.12
80747;BME280;70144;50.218;14.322;2023-09-18T11:11:18;98413.31;;;42.87;18.39
80747;BME280;70144;50.218;14.322;2023-09-18T11:13:52;98413.84;;;43.36;18.29
80747;BME280;70144;50.218;14.322;2023-09-18T11:21:23;98415.66;;;43.89;18.67
80747;BME280;70144;50.218;14.322;2023-09-18T11:23:57;98412.00;;;43.66;17.58
80747;BME280;70144;50.218;14.322;2023-09-18T11:26:23;98407.25;;;43.96;16.00
80747;BME280;70144;50.218;14.322;2023-09-18T11:28:48;98406.38;;;44.24;16.33
80747;BME280;70144;50.218;14.322;2023-09-18T11:31:15;98411.50;;;43.68;16.46
80747;BME280;70144;50.218;14.322;2023-09-18T11:33:42;98411.03;;;42.27;20.85
80747;BME280;70144;50.218;14.322;2023-09-18T11:36:29;98396.81;;;42.12;17.91
80747;BME280;70144;50.218;14.322;2023-09-18T11:38:58;98387.72;;;42.25;17.81
80747;BME280;70144;50.218;14.322;2023-09-18T11:41:31;98397.75;;;42.46;19.81
80747;BME280;70144;50.218;14.322;2023-09-18T11:46:51;98395.06;;;41.41;20.80
80747;BME280;70144;50.218;14.322;2023-09-18T11:49:24;98398.59;;;40.73;22.05
80747;BME280;70144;50.218;14.322;2023-09-18T11:51:52;98397.69;;;39.80;24.40
80747;BME280;70144;50.218;14.322;2023-09-18T11:54:18;98388.22;;;39.25;23.31
80747;BME280;70144;50.218;14.322;2023-09-18T11:56:44;98390.41;;;39.01;24.70
80747;BME280;70144;50.218;14.322;2023-09-18T11:59:09;98375.28;;;38.03;25.50
80747;BME280;70144;50.218;14.322;2023-09-18T12:01:36;98365.78;;;37.40;23.94
80747;BME280;70144;50.218;14.322;2023-09-18T12:04:02;98370.56;;;36.92;23.88
80747;BME280;70144;50.218;14.322;2023-09-18T12:06:39;98359.34;;;38.50;23.36
80747;BME280;70144;50.218;14.322;2023-09-18T12:09:05;98355.81;;;39.83;23.36
80747;BME280;70144;50.218;14.322;2023-09-18T12:11:30;98355.06;;;41.00;19.37
80747;BME280;70144;50.218;14.322;2023-09-18T12:13:56;98342.16;;;42.06;17.34
80747;BME280;70144;50.218;14.322;2023-09-18T12:16:23;98343.97;;;43.19;17.08
80747;BME280;70144;50.218;14.322;2023-09-18T12:18:48;98362.53;;;42.79;18.63
80747;BME280;70144;50.218;14.322;2023-09-18T12:21:15;98359.91;;;43.64;16.21
80747;BME280;70144;50.218;14.322;2023-09-18T12:23:42;98352.47;;;43.96;15.91
80747;BME280;70144;50.218;14.322;2023-09-18T12:26:11;98354.22;;;44.11;15.63
80747;BME280;70144;50.218;14.322;2023-09-18T12:28:38;98345.72;;;44.40;15.62
80747;BME280;70144;50.218;14.322;2023-09-18T12:31:04;98351.91;;;44.97;14.42
80747;BME280;70144;50.218;14.322;2023-09-18T12:33:33;98345.22;;;45.13;15.32
80747;BME280;70144;50.218;14.322;2023-09-18T12:35:59;98335.44;;;45.21;14.83
80747;BME280;70144;50.218;14.322;2023-09-18T12:38:24;98340.53;;;45.64;15.44
80747;BME280;70144;50.218;14.322;2023-09-18T12:40:53;98328.75;;;45.38;13.92
80747;BME280;70144;50.218;14.322;2023-09-18T12:43:19;98326.38;;;45.36;14.65
80747;BME280;70144;50.218;14.322;2023-09-18T12:45:46;98327.47;;;45.81;16.02
80747;BME280;70144;50.218;14.322;2023-09-18T12:48:13;98316.69;;;45.58;13.95
80747;BME280;70144;50.218;14.322;2023-09-18T12:50:39;98312.06;;;45.49;15.18
80747;BME280;70144;50.218;14.322;2023-09-18T12:55:32;98316.84;;;45.90;14.36
80747;BME280;70144;50.218;14.322;2023-09-18T12:57:58;98313.63;;;45.74;13.10
80747;BME280;70144;50.218;14.322;2023-09-18T13:00:24;98305.28;;;45.90;15.44
80747;BME280;70144;50.218;14.322;2023-09-18T13:02:52;98312.63;;;45.18;15.32
80747;BME280;70144;50.218;14.322;2023-09-18T13:05:21;98314.22;;;45.13;16.03